Station info - map view · info · telemetry · weather · raw · status · beacons · messages · bulletins · browse · moving · my account
Callsign, ship name or locator: Clear       
It is possible to search using wildcards (*?) after a prefix. Example: OH*
APRS station K4IZT-9 - show graphs
Map loading...
Mic-E message: Off duty
Location: 27°35.68' N 81°30.08' W - locator EL97FO92UR - show map - static map
0.3 miles East bearing 106° from Avon Park, Highlands County, Florida, United States [?]
7.8 miles Northwest bearing 332° from Sebring, Highlands County, Florida, United States
63.3 miles East bearing 112° from Tampa, Hillsborough County, Florida, United States
73.0 miles East bearing 99° from Saint Petersburg, Pinellas County, Florida, United States
Last position: 2017-01-17 16:07:14 EST (8h59m ago)
2017-01-17 16:07:14 EST local time at Avon Park, United States [?]
Altitude: 154 ft
Course: 270°
Speed: 18 MPH
Device: Yaesu: FTM-400DR (rig)
Last path: K4IZT-9>RWSU6X via WC4PEM-12*,WIDE1*,WC4PEM-15*,WIDE2*,qAR,W4KBW (good)
Positions stored: 4074
Packet rate: 49 seconds between packets on average during 877 seconds.
Stations near current position of K4IZT-9 - show more
callsign distance last heard - EST      callsign distance last heard - EST
VE3CJG-92.2 miles 211°2017-01-17 11:57:20 WF4HEM-132.5 miles 201°2017-01-17 08:40:17
K9GPS-123.4 miles 332°2017-01-17 13:47:17 EW04086.4 miles 170°2017-01-18 01:05:03
WA0NZI7.0 miles 137°2017-01-18 00:49:19 W4CWZ-79.9 miles 150°2016-12-28 19:05:42
W4HEM-1010.9 miles 166°2017-01-18 00:47:40 WC4PEM-1211.9 miles 340°2017-01-18 01:00:37
444.950FP11.9 miles 340°2017-01-18 00:59:29 W1NPR-1313.1 miles 303°2017-01-18 01:04:43
N4PZJ-913.2 miles 303°2017-01-17 15:20:02 VE2GDR13.9 miles 334°2017-01-13 14:02:06
KB9SFF-715.3 miles 337°2016-12-29 08:57:31 EW333116.6 miles 308°2017-01-18 00:59:12
WC4PEM-1317.0 miles 39°2017-01-18 00:59:33 KT4WX18.3 miles 318°2017-01-04 11:15:36
KT4WX-718.3 miles 318°2017-01-17 21:29:59 EW305418.9 miles 314°2017-01-18 00:56:08
N9OEV-i19.4 miles 269°2017-01-16 19:10:10 146.625_W19.8 miles 259°2017-01-18 01:06:08
Stations which heard K4IZT-9 directly on radio –
callsign pkts first heard - EST last heard longest (tx => rx) longest at - EST
K4LKL-10 1 2017-01-06 10:38:29 2017-01-06 10:38:29 EL88VF > EL98AB 17.2 miles 127° 2017-01-06 10:38:29
WC4PEM-9 4 2017-01-06 10:54:03 2017-01-06 11:49:51 EL88TO > EL98CE 45.0 miles 129° 2017-01-06 11:49:51
W4HEM-14 35 2017-01-03 12:56:06 2017-01-17 10:52:08 EL97FO > EL97HH 22.6 miles 158° 2017-01-16 12:39:45
WC4PEM-10 122 2017-01-03 12:41:36 2017-01-17 16:04:55 EL88VG > EL97CV 34.9 miles 139° 2017-01-06 10:47:39
WC4PEM-12 65 2017-01-03 13:00:42 2017-01-17 16:07:14 EL97GM > EL97FS 18.0 miles 345° 2017-01-17 10:13:59
WC4PEM-11 7 2017-01-04 12:21:45 2017-01-17 09:44:40 EL97HO > EL97BR 31.1 miles 291° 2017-01-16 14:05:40
WC4PEM-15 27 2017-01-04 14:52:25 2017-01-17 16:05:03 EL97HO > EL98EA 31.1 miles 339° 2017-01-17 15:57:31
WC4PEM-13 16 2017-01-04 14:57:31 2017-01-17 09:37:21 EL97FO > EL97IS 17.4 miles 40° 2017-01-16 12:13:05
K4PKT-1 1 2017-01-06 09:32:33 2017-01-06 09:32:33 EL87XO > EL96NR 91.6 miles 130° 2017-01-06 09:32:33
KC4HAY-1 3 2017-01-06 10:59:10 2017-01-06 11:12:54 EL88VI > EL88VM 9.9 miles 2° 2017-01-06 10:59:10
K4OZS-10 1 2017-01-06 09:55:17 2017-01-06 09:55:17 EL87WT > EL89XC 91.9 miles 3° 2017-01-06 09:55:17
NI4CE-12 1 2017-01-06 09:51:10 2017-01-06 09:51:10 EL87WR > EL87UT 8.9 miles 310° 2017-01-06 09:51:10
WC4PEM-8 3 2017-01-06 10:36:29 2017-01-06 10:58:36 EL88VI > EL88XD 16.9 miles 141° 2017-01-06 10:58:36
WC4PEM-7 2 2017-01-06 10:07:19 2017-01-06 10:24:48 EL88WB > EL97AV 13.7 miles 141° 2017-01-06 10:24:48
N4EMH-10 4 2017-01-06 08:32:31 2017-01-06 09:24:21 EL97BO > EL97CN 6.7 miles 123° 2017-01-06 09:24:21
W4RPT-1 25 2017-01-06 11:03:24 2017-01-08 08:44:26 EL88TT > EL88VM 23.5 miles 149° 2017-01-06 19:26:56
N9HV-1 1 2017-01-08 08:45:28 2017-01-08 08:45:28 EL88TT > EL88RR 10.2 miles 238° 2017-01-08 08:45:28

Only position packets which were originated by the station are shown here. The range statistics show some extra long hops, because some digipeaters do not correctly add themselves to the digipeater path. Please check the raw packets.
About this site
This page shows real-time information collected from the Automatic Position Reporting System Internet network (APRS-IS). APRS is used by amateur (ham) radio operators to transmit real-time position information, weather data, telemetry and messages over the radio. A vehicle equipped with a GPS receiver, a VHF transmitter or HF transceiver and a small computer device called a tracker transmits it's location, speed and course in a small data packet, which is then received by a nearby iGate receiving site which forwards the packet on the Internet. Systems connected to the Internet can send information on the APRS-IS without a radio transmitter, or collect and display information transmitted anywhere in the world.
FAQ · Blog · Discussion group · Linking to aprs.fi · AIS sites · Service status · Database statistics · Advertising on aprs.fi · Technical details · API · Change log · Planned changes · Credits and thanks · Terms Of Service · iPhone/iPad APRS